DLH23L EDDL-LEPA
Flight info
| Callsign | DLH23L |
|---|---|
| Flight time | N/A |
| Altitude | 24000 |
| Route | MODRU7Z/05R MODRU Z283 LNO/N0453F370 Z283 RITAX UT27 ROUSY DCT GTQ DCT POGOL DCT LASAT DCT MOROK DCT GILIR DCT GEVEA DCT INCUS DCT BALSI DCT RETNO DCT TUPOX DCT MTG DCT DIVKO DCT VATIR N852 VERSO L129 LUNIK LUNIK2P |
| Aircraft | A20N/M-SDE2E3FGHIRWXY/LB1 |
Departure
| Time | 2026-05-05 14:03 |
|---|---|
| Airport | Düsseldorf Airport (EDDL) |
Arrival
| Time | N/A |
|---|---|
| Airport | Palma de Mallorca Airport (LEPA) |
| Time | Latitude | Longitude | Altitude | Speed | Heading |
|---|---|---|---|---|---|
| 2026-05-05 13:01 | 51.28044 | 6.76219 | 133 ft | 0 kts | 163° |
| 2026-05-05 13:50 | 51.28054 | 6.76215 | 133 ft | 4 kts | 166° |
| 2026-05-05 13:50 | 51.28081 | 6.76207 | 133 ft | 4 kts | 176° |
| 2026-05-05 13:50 | 51.28107 | 6.76207 | 133 ft | 4 kts | 190° |
| 2026-05-05 13:50 | 51.28132 | 6.76221 | 133 ft | 4 kts | 219° |
| 2026-05-05 13:51 | 51.28140 | 6.76232 | 133 ft | 3 kts | 233° |
| 2026-05-05 13:58 | 51.28133 | 6.76216 | 133 ft | 4 kts | 233° |
| 2026-05-05 13:58 | 51.28115 | 6.76179 | 133 ft | 4 kts | 233° |
| 2026-05-05 13:59 | 51.28083 | 6.76103 | 134 ft | 6 kts | 249° |
| 2026-05-05 13:59 | 51.28093 | 6.76040 | 134 ft | 7 kts | 295° |
| 2026-05-05 14:00 | 51.28066 | 6.75889 | 133 ft | 11 kts | 236° |
| 2026-05-05 14:00 | 51.28008 | 6.75764 | 128 ft | 16 kts | 232° |
| 2026-05-05 14:00 | 51.27968 | 6.75681 | 130 ft | 0 kts | 233° |
| 2026-05-05 14:01 | 51.27954 | 6.75648 | 130 ft | 10 kts | 239° |
| 2026-05-05 14:01 | 51.27963 | 6.75553 | 126 ft | 7 kts | 315° |
| 2026-05-05 14:02 | 51.28017 | 6.75509 | 123 ft | 10 kts | 340° |
| 2026-05-05 14:02 | 51.28071 | 6.75489 | 127 ft | 6 kts | 355° |
| 2026-05-05 14:02 | 51.28117 | 6.75517 | 123 ft | 7 kts | 37° |
| 2026-05-05 14:02 | 51.28200 | 6.75687 | 126 ft | 54 kts | 53° |
| 2026-05-05 14:03 | 51.28619 | 6.76572 | 138 ft | 145 kts | 52° |
| 2026-05-05 14:03 | 51.29384 | 6.78162 | 512 ft | 205 kts | 52° |
| 2026-05-05 14:03 | 51.30306 | 6.80105 | 1510 ft | 232 kts | 52° |
| 2026-05-05 14:03 | 51.31224 | 6.82025 | 2533 ft | 217 kts | 51° |
| 2026-05-05 14:04 | 51.32179 | 6.83982 | 3822 ft | 225 kts | 51° |
| 2026-05-05 14:04 | 51.33204 | 6.86152 | 4525 ft | 267 kts | 53° |
| 2026-05-05 14:04 | 51.34586 | 6.88224 | 5488 ft | 275 kts | 28° |
| 2026-05-05 14:04 | 51.36282 | 6.89534 | 7173 ft | 271 kts | 21° |
| 2026-05-05 14:05 | 51.38085 | 6.90595 | 8461 ft | 277 kts | 17° |
| 2026-05-05 14:05 | 51.39956 | 6.91458 | 9713 ft | 283 kts | 13° |
| 2026-05-05 14:05 | 51.41878 | 6.92181 | 10777 ft | 295 kts | 11° |
| 2026-05-05 14:05 | 51.43984 | 6.92853 | 11532 ft | 317 kts | 9° |
| 2026-05-05 14:06 | 51.46204 | 6.93396 | 12293 ft | 335 kts | 0° |
| 2026-05-05 14:06 | 51.48525 | 6.92572 | 13088 ft | 350 kts | 332° |
| 2026-05-05 14:06 | 51.50393 | 6.90001 | 13897 ft | 364 kts | 305° |
| 2026-05-05 14:06 | 51.51631 | 6.86428 | 14683 ft | 377 kts | 295° |
| 2026-05-05 14:07 | 51.52691 | 6.82488 | 15468 ft | 390 kts | 291° |
| 2026-05-05 14:07 | 51.53681 | 6.78380 | 16411 ft | 396 kts | 290° |
| 2026-05-05 14:07 | 51.54635 | 6.74184 | 17343 ft | 401 kts | 289° |
| 2026-05-05 14:07 | 51.55251 | 6.69786 | 18233 ft | 407 kts | 271° |
| 2026-05-05 14:08 | 51.54799 | 6.65337 | 19086 ft | 412 kts | 253° |
| 2026-05-05 14:08 | 51.53815 | 6.60967 | 19905 ft | 418 kts | 248° |
| 2026-05-05 14:08 | 51.52650 | 6.56640 | 20697 ft | 423 kts | 245° |
| 2026-05-05 14:08 | 51.51399 | 6.52382 | 21451 ft | 428 kts | 244° |
| 2026-05-05 14:09 | 51.49986 | 6.48110 | 22178 ft | 433 kts | 240° |
| 2026-05-05 14:09 | 51.48525 | 6.43831 | 22877 ft | 438 kts | 242° |
| 2026-05-05 14:09 | 51.47130 | 6.39540 | 23414 ft | 434 kts | 239° |
| 2026-05-05 14:09 | 51.45161 | 6.36015 | 23720 ft | 414 kts | 217° |
| 2026-05-05 14:10 | 51.42772 | 6.33688 | 23877 ft | 398 kts | 208° |
| 2026-05-05 14:10 | 51.40252 | 6.31751 | 23945 ft | 403 kts | 204° |
| 2026-05-05 14:10 | 51.37656 | 6.30002 | 23978 ft | 405 kts | 202° |
| 2026-05-05 14:10 | 51.35051 | 6.28397 | 23988 ft | 404 kts | 201° |
| 2026-05-05 14:11 | 51.32411 | 6.26849 | 23993 ft | 404 kts | 200° |
| 2026-05-05 14:11 | 51.29757 | 6.25326 | 23995 ft | 404 kts | 200° |
| 2026-05-05 14:11 | 51.27121 | 6.23824 | 23996 ft | 405 kts | 200° |
| 2026-05-05 14:11 | 51.24464 | 6.22308 | 23997 ft | 405 kts | 200° |
| 2026-05-05 14:12 | 51.21834 | 6.20801 | 23997 ft | 404 kts | 200° |
| 2026-05-05 14:12 | 51.19178 | 6.19271 | 23997 ft | 404 kts | 200° |
| 2026-05-05 14:12 | 51.16523 | 6.17734 | 23998 ft | 404 kts | 200° |
| 2026-05-05 14:12 | 51.13910 | 6.16214 | 23998 ft | 405 kts | 200° |
| 2026-05-05 14:13 | 51.11260 | 6.14665 | 23998 ft | 404 kts | 200° |
| 2026-05-05 14:13 | 51.08613 | 6.13113 | 23998 ft | 404 kts | 201° |
| 2026-05-05 14:13 | 51.05976 | 6.11562 | 23998 ft | 403 kts | 200° |
| 2026-05-05 14:13 | 51.03302 | 6.10237 | 24000 ft | 404 kts | 195° |
| 2026-05-05 14:14 | 51.00587 | 6.09174 | 23999 ft | 405 kts | 193° |
| 2026-05-05 14:14 | 50.97820 | 6.08198 | 23999 ft | 405 kts | 193° |
| 2026-05-05 14:14 | 50.95077 | 6.07280 | 23998 ft | 405 kts | 192° |
| 2026-05-05 14:14 | 50.92325 | 6.06388 | 23998 ft | 404 kts | 192° |
| 2026-05-05 14:15 | 50.89546 | 6.05502 | 23999 ft | 405 kts | 192° |
| 2026-05-05 14:15 | 50.86788 | 6.04633 | 23999 ft | 406 kts | 192° |
| 2026-05-05 14:15 | 50.84001 | 6.03760 | 23999 ft | 405 kts | 192° |
| 2026-05-05 14:15 | 50.81258 | 6.02904 | 23999 ft | 405 kts | 192° |
| 2026-05-05 14:16 | 50.78503 | 6.02047 | 24000 ft | 406 kts | 192° |
| 2026-05-05 14:16 | 50.75722 | 6.01184 | 24000 ft | 406 kts | 192° |
| 2026-05-05 14:16 | 50.72943 | 6.00322 | 24001 ft | 406 kts | 192° |
| 2026-05-05 14:16 | 50.70155 | 5.99460 | 24000 ft | 405 kts | 192° |
| 2026-05-05 14:17 | 50.67401 | 5.98609 | 24000 ft | 405 kts | 192° |
| 2026-05-05 14:17 | 50.64660 | 5.97763 | 24000 ft | 406 kts | 192° |
| 2026-05-05 14:17 | 50.61863 | 5.96901 | 24000 ft | 407 kts | 191° |
| 2026-05-05 14:17 | 50.59112 | 5.96055 | 23999 ft | 406 kts | 191° |
| 2026-05-05 14:18 | 50.56323 | 5.95197 | 23999 ft | 406 kts | 191° |
| 2026-05-05 14:18 | 50.53563 | 5.94352 | 24001 ft | 407 kts | 191° |
| 2026-05-05 14:18 | 50.50794 | 5.93505 | 24001 ft | 407 kts | 191° |
| 2026-05-05 14:18 | 50.47989 | 5.92646 | 23999 ft | 406 kts | 191° |
| 2026-05-05 14:19 | 50.45235 | 5.91806 | 24000 ft | 407 kts | 191° |
| 2026-05-05 14:19 | 50.42443 | 5.90954 | 24001 ft | 407 kts | 191° |
| 2026-05-05 14:19 | 50.39667 | 5.90108 | 24001 ft | 407 kts | 191° |
| 2026-05-05 14:19 | 50.36881 | 5.89260 | 24000 ft | 406 kts | 191° |
| 2026-05-05 14:20 | 50.34121 | 5.88420 | 24001 ft | 406 kts | 191° |
| 2026-05-05 14:20 | 50.31323 | 5.87571 | 23999 ft | 407 kts | 191° |
| 2026-05-05 14:20 | 50.28565 | 5.86734 | 23999 ft | 407 kts | 191° |
| 2026-05-05 14:20 | 50.25766 | 5.85887 | 23999 ft | 407 kts | 191° |
| 2026-05-05 14:21 | 50.23000 | 5.85051 | 24000 ft | 407 kts | 191° |
| 2026-05-05 14:21 | 50.20229 | 5.84214 | 23999 ft | 407 kts | 191° |
| 2026-05-05 14:21 | 50.17414 | 5.83365 | 23999 ft | 407 kts | 191° |
| 2026-05-05 14:21 | 50.14652 | 5.82533 | 24000 ft | 407 kts | 191° |
| 2026-05-05 14:22 | 50.11874 | 5.81698 | 24000 ft | 406 kts | 191° |
| 2026-05-05 14:22 | 50.09115 | 5.80868 | 24001 ft | 406 kts | 191° |
| 2026-05-05 14:22 | 50.06319 | 5.80029 | 24000 ft | 407 kts | 191° |
| 2026-05-05 14:22 | 50.03560 | 5.79202 | 24000 ft | 408 kts | 191° |
| 2026-05-05 14:23 | 50.00758 | 5.78364 | 24000 ft | 408 kts | 191° |
| 2026-05-05 14:23 | 49.97974 | 5.77532 | 24002 ft | 407 kts | 191° |
| 2026-05-05 14:23 | 49.95188 | 5.76700 | 24002 ft | 407 kts | 191° |
| 2026-05-05 14:23 | 49.92422 | 5.75875 | 24003 ft | 407 kts | 191° |
| 2026-05-05 14:24 | 49.89651 | 5.75051 | 24000 ft | 407 kts | 191° |
| 2026-05-05 14:24 | 49.86843 | 5.74216 | 24000 ft | 406 kts | 191° |
| 2026-05-05 14:24 | 49.84076 | 5.73394 | 23999 ft | 406 kts | 191° |
| 2026-05-05 14:24 | 49.81317 | 5.72575 | 23999 ft | 407 kts | 191° |
| 2026-05-05 14:25 | 49.78519 | 5.71747 | 24000 ft | 407 kts | 191° |
| 2026-05-05 14:25 | 49.75754 | 5.70929 | 23999 ft | 407 kts | 191° |
| 2026-05-05 14:25 | 49.72981 | 5.70109 | 23999 ft | 406 kts | 191° |
| 2026-05-05 14:25 | 49.70186 | 5.69284 | 23999 ft | 406 kts | 191° |
| 2026-05-05 14:26 | 49.67434 | 5.68473 | 24000 ft | 406 kts | 191° |
| 2026-05-05 14:26 | 49.64634 | 5.67649 | 24001 ft | 407 kts | 191° |
| 2026-05-05 14:26 | 49.61867 | 5.66835 | 24000 ft | 407 kts | 191° |
| 2026-05-05 14:26 | 49.59078 | 5.66016 | 24000 ft | 406 kts | 191° |
| 2026-05-05 14:27 | 49.56330 | 5.65210 | 24001 ft | 405 kts | 191° |
| 2026-05-05 14:27 | 49.53552 | 5.64396 | 24001 ft | 406 kts | 191° |
| 2026-05-05 14:27 | 49.50763 | 5.63579 | 24001 ft | 406 kts | 191° |
| 2026-05-05 14:27 | 49.48007 | 5.62773 | 24000 ft | 407 kts | 191° |
| 2026-05-05 14:28 | 49.45204 | 5.61955 | 24001 ft | 406 kts | 191° |
| 2026-05-05 14:28 | 49.42422 | 5.61144 | 24000 ft | 405 kts | 191° |
| 2026-05-05 14:28 | 49.39671 | 5.60343 | 24001 ft | 406 kts | 191° |
| 2026-05-05 14:28 | 49.36860 | 5.59526 | 24000 ft | 406 kts | 191° |
| 2026-05-05 14:29 | 49.34102 | 5.58724 | 23999 ft | 406 kts | 191° |
| 2026-05-05 14:29 | 49.31321 | 5.57917 | 24000 ft | 405 kts | 191° |
| 2026-05-05 14:29 | 49.28569 | 5.57119 | 24000 ft | 405 kts | 191° |
| 2026-05-05 14:29 | 49.25777 | 5.56311 | 24000 ft | 406 kts | 191° |
| 2026-05-05 14:30 | 49.23032 | 5.55517 | 24000 ft | 406 kts | 191° |
| 2026-05-05 14:30 | 49.20234 | 5.54709 | 24000 ft | 406 kts | 191° |
| 2026-05-05 14:30 | 49.17478 | 5.53914 | 24000 ft | 405 kts | 191° |
| 2026-05-05 14:30 | 49.14693 | 5.53112 | 24000 ft | 405 kts | 191° |
| 2026-05-05 14:31 | 49.11948 | 5.52322 | 24000 ft | 406 kts | 191° |
| 2026-05-05 14:31 | 49.09141 | 5.51515 | 24000 ft | 407 kts | 191° |
| 2026-05-05 14:31 | 49.06372 | 5.50720 | 24000 ft | 407 kts | 191° |
| 2026-05-05 14:31 | 49.03615 | 5.49930 | 24000 ft | 405 kts | 191° |
| 2026-05-05 14:32 | 49.00825 | 5.49131 | 24001 ft | 405 kts | 191° |
| 2026-05-05 14:32 | 48.98061 | 5.48340 | 24001 ft | 406 kts | 191° |
| 2026-05-05 14:32 | 48.95296 | 5.47549 | 24001 ft | 406 kts | 191° |
| 2026-05-05 14:32 | 48.92501 | 5.46752 | 24001 ft | 406 kts | 191° |
| 2026-05-05 14:33 | 48.89752 | 5.45967 | 24000 ft | 406 kts | 191° |
| 2026-05-05 14:33 | 48.86962 | 5.45173 | 24000 ft | 406 kts | 191° |
| 2026-05-05 14:33 | 48.84199 | 5.44387 | 23999 ft | 406 kts | 191° |
| 2026-05-05 14:33 | 48.81407 | 5.43594 | 24000 ft | 407 kts | 191° |
| 2026-05-05 14:34 | 48.78640 | 5.42808 | 24000 ft | 407 kts | 191° |
| 2026-05-05 14:34 | 48.75844 | 5.42016 | 24000 ft | 406 kts | 191° |
| 2026-05-05 14:34 | 48.73083 | 5.41234 | 24000 ft | 406 kts | 191° |
| 2026-05-05 14:34 | 48.70288 | 5.40444 | 24001 ft | 406 kts | 191° |
| 2026-05-05 14:35 | 48.67532 | 5.39665 | 24001 ft | 407 kts | 191° |
| 2026-05-05 14:35 | 48.64729 | 5.38875 | 24000 ft | 406 kts | 191° |
| 2026-05-05 14:35 | 48.61970 | 5.38097 | 23999 ft | 406 kts | 191° |
| 2026-05-05 14:35 | 48.59175 | 5.37310 | 24001 ft | 406 kts | 191° |
| 2026-05-05 14:36 | 48.56412 | 5.36534 | 24001 ft | 406 kts | 191° |
| 2026-05-05 14:36 | 48.54557 | 5.36013 | 24001 ft | 407 kts | 191° |
| 2026-05-05 14:36 | 48.51763 | 5.35228 | 24000 ft | 407 kts | 191° |
| 2026-05-05 14:36 | 48.48998 | 5.34453 | 24000 ft | 406 kts | 191° |
| 2026-05-05 14:37 | 48.45296 | 5.33417 | 24000 ft | 406 kts | 191° |
| 2026-05-05 14:37 | 48.43439 | 5.32898 | 24000 ft | 407 kts | 191° |
| 2026-05-05 14:37 | 48.40655 | 5.32120 | 24000 ft | 407 kts | 191° |
| 2026-05-05 14:37 | 48.37893 | 5.31349 | 24001 ft | 406 kts | 191° |
| 2026-05-05 14:38 | 48.35132 | 5.30579 | 24001 ft | 406 kts | 191° |
| 2026-05-05 14:38 | 48.32340 | 5.29802 | 24000 ft | 406 kts | 191° |
| 2026-05-05 14:38 | 48.29545 | 5.29025 | 24000 ft | 406 kts | 191° |
| 2026-05-05 14:38 | 48.26790 | 5.28260 | 24000 ft | 406 kts | 191° |
| 2026-05-05 14:39 | 48.24012 | 5.27489 | 24000 ft | 406 kts | 191° |
| 2026-05-05 14:39 | 48.21241 | 5.26720 | 24000 ft | 406 kts | 191° |
| 2026-05-05 14:39 | 48.18476 | 5.25955 | 24000 ft | 406 kts | 191° |
| 2026-05-05 14:39 | 48.15664 | 5.25178 | 24000 ft | 407 kts | 191° |
| 2026-05-05 14:40 | 48.12900 | 5.24415 | 23999 ft | 406 kts | 191° |
| 2026-05-05 14:40 | 48.10112 | 5.23645 | 23999 ft | 406 kts | 191° |
| 2026-05-05 14:40 | 48.07348 | 5.22883 | 24000 ft | 406 kts | 191° |
| 2026-05-05 14:40 | 48.04543 | 5.22111 | 24000 ft | 407 kts | 191° |
| 2026-05-05 14:41 | 48.01775 | 5.21350 | 24002 ft | 406 kts | 191° |
| 2026-05-05 14:41 | 47.98984 | 5.20583 | 24001 ft | 406 kts | 191° |
| 2026-05-05 14:41 | 47.96214 | 5.19823 | 24001 ft | 407 kts | 191° |
| 2026-05-05 14:41 | 47.93421 | 5.19056 | 24000 ft | 407 kts | 191° |
| 2026-05-05 14:42 | 47.90655 | 5.18299 | 23999 ft | 407 kts | 191° |
| 2026-05-05 14:42 | 47.87849 | 5.17532 | 24000 ft | 406 kts | 191° |
| 2026-05-05 14:42 | 47.85088 | 5.16777 | 24000 ft | 407 kts | 191° |
| 2026-05-05 14:42 | 47.82287 | 5.16013 | 24000 ft | 407 kts | 191° |
| 2026-05-05 14:43 | 47.79512 | 5.15257 | 24000 ft | 407 kts | 191° |
| 2026-05-05 14:43 | 47.76739 | 5.14502 | 24000 ft | 407 kts | 191° |
| 2026-05-05 14:43 | 47.73933 | 5.13739 | 24001 ft | 406 kts | 191° |
| 2026-05-05 14:43 | 47.71158 | 5.12985 | 24000 ft | 407 kts | 191° |
| 2026-05-05 14:44 | 47.68396 | 5.12235 | 24001 ft | 407 kts | 191° |
| 2026-05-05 14:44 | 47.65599 | 5.11477 | 24001 ft | 407 kts | 191° |
| 2026-05-05 14:44 | 47.62801 | 5.10719 | 24001 ft | 406 kts | 191° |
| 2026-05-05 14:44 | 47.60017 | 5.09966 | 24000 ft | 407 kts | 191° |
| 2026-05-05 14:45 | 47.57252 | 5.09219 | 24000 ft | 407 kts | 191° |
| 2026-05-05 14:45 | 47.54463 | 5.08466 | 23999 ft | 406 kts | 191° |
| 2026-05-05 14:45 | 47.51691 | 5.07719 | 24000 ft | 406 kts | 191° |
| 2026-05-05 14:45 | 47.48902 | 5.06967 | 24000 ft | 406 kts | 191° |
| 2026-05-05 14:46 | 47.46116 | 5.06217 | 23999 ft | 406 kts | 191° |
| 2026-05-05 14:46 | 47.43356 | 5.05476 | 23999 ft | 406 kts | 191° |
| 2026-05-05 14:46 | 47.40568 | 5.04727 | 23999 ft | 406 kts | 191° |
| 2026-05-05 14:46 | 47.37775 | 5.03978 | 24000 ft | 406 kts | 191° |
| 2026-05-05 14:47 | 47.35032 | 5.03243 | 24000 ft | 406 kts | 191° |
| 2026-05-05 14:47 | 47.32236 | 5.02494 | 24000 ft | 406 kts | 191° |
| 2026-05-05 14:47 | 47.29481 | 5.01758 | 23999 ft | 406 kts | 191° |
| 2026-05-05 14:47 | 47.26695 | 5.01014 | 23999 ft | 406 kts | 191° |
| 2026-05-05 14:48 | 47.23904 | 5.00269 | 23999 ft | 406 kts | 191° |
| 2026-05-05 14:48 | 47.21150 | 4.99535 | 24000 ft | 406 kts | 191° |
| 2026-05-05 14:48 | 47.18359 | 4.98792 | 24000 ft | 406 kts | 191° |
| 2026-05-05 14:48 | 47.15582 | 4.98054 | 24000 ft | 406 kts | 191° |
| 2026-05-05 14:49 | 47.12797 | 4.97315 | 24000 ft | 406 kts | 191° |
| 2026-05-05 14:49 | 47.10048 | 4.96586 | 24000 ft | 406 kts | 191° |
| 2026-05-05 14:49 | 47.07259 | 4.95846 | 24000 ft | 406 kts | 191° |
| 2026-05-05 14:49 | 47.04476 | 4.95109 | 23999 ft | 406 kts | 191° |
| 2026-05-05 14:50 | 47.01697 | 4.94374 | 24000 ft | 405 kts | 191° |
| 2026-05-05 14:50 | 46.98945 | 4.93647 | 24000 ft | 405 kts | 191° |
| 2026-05-05 14:50 | 46.96151 | 4.92910 | 24000 ft | 406 kts | 191° |
| 2026-05-05 14:50 | 46.93406 | 4.92186 | 24000 ft | 406 kts | 191° |
| 2026-05-05 14:51 | 46.90618 | 4.91452 | 24000 ft | 406 kts | 191° |
| 2026-05-05 14:51 | 46.87829 | 4.90718 | 24000 ft | 406 kts | 191° |
| 2026-05-05 14:51 | 46.85084 | 4.89997 | 24000 ft | 405 kts | 191° |
| 2026-05-05 14:51 | 46.82295 | 4.89264 | 24000 ft | 405 kts | 191° |
| 2026-05-05 14:52 | 46.79508 | 4.88534 | 24001 ft | 405 kts | 191° |
| 2026-05-05 14:52 | 46.76754 | 4.87812 | 24001 ft | 405 kts | 191° |
| 2026-05-05 14:52 | 46.73980 | 4.87086 | 24000 ft | 406 kts | 191° |
| 2026-05-05 14:52 | 46.71184 | 4.86355 | 24000 ft | 406 kts | 191° |
| 2026-05-05 14:53 | 46.68421 | 4.85634 | 24000 ft | 405 kts | 191° |
| 2026-05-05 14:53 | 46.65635 | 4.84907 | 24000 ft | 405 kts | 191° |
| 2026-05-05 14:53 | 46.62849 | 4.84182 | 24000 ft | 405 kts | 191° |
| 2026-05-05 14:53 | 46.60081 | 4.83461 | 24001 ft | 406 kts | 191° |
| 2026-05-05 14:54 | 46.57314 | 4.82741 | 24001 ft | 407 kts | 191° |
| 2026-05-05 14:54 | 46.54509 | 4.82012 | 24001 ft | 406 kts | 191° |
| 2026-05-05 14:54 | 46.51754 | 4.81297 | 24000 ft | 405 kts | 191° |
| 2026-05-05 14:54 | 46.48971 | 4.80576 | 24001 ft | 406 kts | 191° |
| 2026-05-05 14:55 | 46.46174 | 4.79851 | 24001 ft | 407 kts | 191° |
| 2026-05-05 14:55 | 46.43417 | 4.79138 | 24003 ft | 406 kts | 191° |
| 2026-05-05 14:55 | 46.40617 | 4.78415 | 24001 ft | 405 kts | 191° |
| 2026-05-05 14:55 | 46.37870 | 4.77705 | 24001 ft | 405 kts | 191° |
| 2026-05-05 14:56 | 46.35085 | 4.76987 | 24007 ft | 407 kts | 191° |
| 2026-05-05 14:56 | 46.32287 | 4.76266 | 24001 ft | 407 kts | 191° |
| 2026-05-05 14:56 | 46.29531 | 4.75557 | 23999 ft | 405 kts | 191° |
| 2026-05-05 14:56 | 46.26739 | 4.74839 | 24001 ft | 405 kts | 191° |
| 2026-05-05 14:57 | 46.23971 | 4.74129 | 24000 ft | 407 kts | 191° |
| 2026-05-05 14:57 | 46.21178 | 4.73412 | 23999 ft | 406 kts | 191° |
| 2026-05-05 14:57 | 46.18382 | 4.72695 | 23999 ft | 405 kts | 191° |
| 2026-05-05 14:57 | 46.15620 | 4.71988 | 23999 ft | 405 kts | 191° |
| 2026-05-05 14:58 | 46.12833 | 4.71275 | 24000 ft | 406 kts | 191° |
| 2026-05-05 14:58 | 46.10064 | 4.70568 | 24000 ft | 406 kts | 191° |
| 2026-05-05 14:58 | 46.07299 | 4.69862 | 23999 ft | 406 kts | 191° |
| 2026-05-05 14:58 | 46.04517 | 4.69152 | 23999 ft | 405 kts | 191° |
| 2026-05-05 14:59 | 46.01730 | 4.68442 | 24000 ft | 405 kts | 191° |
| 2026-05-05 14:59 | 45.98941 | 4.67732 | 24000 ft | 406 kts | 191° |
| 2026-05-05 14:59 | 45.96187 | 4.67032 | 24000 ft | 406 kts | 191° |
| 2026-05-05 14:59 | 45.93390 | 4.66322 | 24001 ft | 406 kts | 191° |
| 2026-05-05 15:00 | 45.90624 | 4.65621 | 24002 ft | 406 kts | 191° |
| 2026-05-05 15:00 | 45.88755 | 4.65147 | 24002 ft | 406 kts | 191° |
| 2026-05-05 15:00 | 45.85041 | 4.64205 | 24000 ft | 406 kts | 191° |
| 2026-05-05 15:00 | 45.82289 | 4.63510 | 24001 ft | 406 kts | 190° |
| 2026-05-05 15:01 | 45.79491 | 4.62803 | 24001 ft | 407 kts | 191° |
| 2026-05-05 15:01 | 45.76719 | 4.62104 | 24001 ft | 408 kts | 190° |
| 2026-05-05 15:01 | 45.73912 | 4.61397 | 24001 ft | 408 kts | 190° |
| 2026-05-05 15:01 | 45.71127 | 4.60695 | 24001 ft | 409 kts | 190° |
| 2026-05-05 15:02 | 45.68301 | 4.59983 | 23999 ft | 408 kts | 190° |
| 2026-05-05 15:02 | 45.65541 | 4.59289 | 24000 ft | 407 kts | 190° |
| 2026-05-05 15:02 | 45.62733 | 4.58584 | 24001 ft | 409 kts | 190° |
| 2026-05-05 15:02 | 45.59906 | 4.57874 | 24001 ft | 410 kts | 190° |
| 2026-05-05 15:03 | 45.57098 | 4.57170 | 23999 ft | 408 kts | 190° |
| 2026-05-05 15:03 | 45.54330 | 4.56477 | 24000 ft | 406 kts | 190° |
| 2026-05-05 15:03 | 45.51544 | 4.55781 | 24000 ft | 407 kts | 190° |
| 2026-05-05 15:03 | 45.48752 | 4.55083 | 23999 ft | 407 kts | 190° |
| 2026-05-05 15:04 | 45.45990 | 4.54393 | 24000 ft | 406 kts | 190° |
| 2026-05-05 15:04 | 45.43185 | 4.53694 | 24000 ft | 407 kts | 190° |
| 2026-05-05 15:04 | 45.40411 | 4.53003 | 24001 ft | 409 kts | 190° |
| 2026-05-05 15:04 | 45.37584 | 4.52299 | 24002 ft | 410 kts | 190° |
| 2026-05-05 15:05 | 45.31945 | 4.50898 | 24000 ft | 412 kts | 190° |
| 2026-05-05 15:05 | 45.29148 | 4.50205 | 23999 ft | 410 kts | 190° |
| 2026-05-05 15:05 | 45.26340 | 4.49509 | 24000 ft | 409 kts | 190° |
| 2026-05-05 15:06 | 45.23523 | 4.48811 | 24000 ft | 410 kts | 190° |
| 2026-05-05 15:06 | 45.20704 | 4.48114 | 24001 ft | 413 kts | 190° |
| 2026-05-05 15:06 | 45.17873 | 4.47414 | 24001 ft | 412 kts | 190° |
| 2026-05-05 15:06 | 45.15078 | 4.46724 | 23998 ft | 410 kts | 190° |
| 2026-05-05 15:07 | 45.12266 | 4.46031 | 24000 ft | 409 kts | 190° |
| 2026-05-05 15:07 | 45.09483 | 4.45345 | 23999 ft | 409 kts | 190° |
| 2026-05-05 15:07 | 45.06668 | 4.44652 | 24000 ft | 410 kts | 190° |
| 2026-05-05 15:07 | 45.03846 | 4.43958 | 23998 ft | 409 kts | 190° |
| 2026-05-05 15:08 | 45.01025 | 4.43265 | 24000 ft | 410 kts | 190° |
| 2026-05-05 15:08 | 44.98244 | 4.42583 | 24001 ft | 410 kts | 190° |
| 2026-05-05 15:08 | 44.95421 | 4.41891 | 24001 ft | 410 kts | 190° |
| 2026-05-05 15:08 | 44.92618 | 4.41204 | 24002 ft | 410 kts | 190° |
| 2026-05-05 15:09 | 44.89798 | 4.40514 | 24001 ft | 407 kts | 190° |
| 2026-05-05 15:09 | 44.87023 | 4.39836 | 24000 ft | 407 kts | 190° |
| 2026-05-05 15:09 | 44.84196 | 4.39146 | 23999 ft | 411 kts | 190° |
| 2026-05-05 15:09 | 44.81393 | 4.38463 | 24000 ft | 410 kts | 190° |
| 2026-05-05 15:10 | 44.78573 | 4.37775 | 23998 ft | 409 kts | 190° |
| 2026-05-05 15:10 | 44.75781 | 4.37095 | 24000 ft | 411 kts | 190° |
| 2026-05-05 15:10 | 44.72969 | 4.36410 | 24002 ft | 409 kts | 190° |
| 2026-05-05 15:10 | 44.70187 | 4.35735 | 24001 ft | 406 kts | 190° |
| 2026-05-05 15:11 | 44.67384 | 4.35055 | 24001 ft | 407 kts | 190° |
| 2026-05-05 15:11 | 44.64613 | 4.34383 | 23999 ft | 407 kts | 190° |
| 2026-05-05 15:11 | 44.61833 | 4.33710 | 24000 ft | 406 kts | 190° |
| 2026-05-05 15:11 | 44.59025 | 4.33031 | 24001 ft | 407 kts | 190° |
| 2026-05-05 15:12 | 44.56253 | 4.32361 | 24003 ft | 407 kts | 190° |
| 2026-05-05 15:12 | 44.53439 | 4.31680 | 24002 ft | 405 kts | 190° |
| 2026-05-05 15:12 | 44.50683 | 4.31015 | 24000 ft | 405 kts | 190° |
| 2026-05-05 15:12 | 44.47899 | 4.30344 | 24000 ft | 405 kts | 190° |
| 2026-05-05 15:13 | 44.45112 | 4.29673 | 24000 ft | 407 kts | 190° |
| 2026-05-05 15:13 | 44.42331 | 4.29003 | 23999 ft | 406 kts | 190° |
| 2026-05-05 15:13 | 44.39578 | 4.28342 | 23999 ft | 404 kts | 190° |
| 2026-05-05 15:13 | 44.36797 | 4.27674 | 24001 ft | 405 kts | 190° |
| 2026-05-05 15:14 | 44.34002 | 4.27003 | 24000 ft | 407 kts | 190° |
| 2026-05-05 15:14 | 44.31222 | 4.26337 | 23999 ft | 407 kts | 190° |
| 2026-05-05 15:14 | 44.28425 | 4.25668 | 24000 ft | 405 kts | 190° |
| 2026-05-05 15:14 | 44.25667 | 4.25008 | 23999 ft | 405 kts | 190° |
| 2026-05-05 15:15 | 44.22893 | 4.24344 | 24000 ft | 405 kts | 190° |
| 2026-05-05 15:15 | 44.20115 | 4.23681 | 24000 ft | 406 kts | 190° |
| 2026-05-05 15:15 | 44.17312 | 4.23012 | 24000 ft | 406 kts | 190° |
| 2026-05-05 15:15 | 44.14553 | 4.22355 | 24000 ft | 405 kts | 190° |
| 2026-05-05 15:16 | 44.11759 | 4.21690 | 24000 ft | 405 kts | 190° |
| 2026-05-05 15:16 | 44.08999 | 4.21033 | 24000 ft | 406 kts | 190° |
| 2026-05-05 15:16 | 44.06203 | 4.20369 | 24000 ft | 406 kts | 190° |
| 2026-05-05 15:16 | 44.03449 | 4.19715 | 24000 ft | 405 kts | 190° |
| 2026-05-05 15:17 | 44.00661 | 4.19054 | 24000 ft | 405 kts | 190° |
| 2026-05-05 15:17 | 43.97871 | 4.18392 | 24000 ft | 405 kts | 190° |
| 2026-05-05 15:17 | 43.95112 | 4.17739 | 24000 ft | 405 kts | 190° |
| 2026-05-05 15:17 | 43.92315 | 4.17077 | 23999 ft | 405 kts | 190° |
| 2026-05-05 15:18 | 43.89528 | 4.16419 | 23999 ft | 405 kts | 190° |
| 2026-05-05 15:18 | 43.86756 | 4.15765 | 23999 ft | 405 kts | 190° |
| 2026-05-05 15:18 | 43.83984 | 4.15111 | 24000 ft | 406 kts | 190° |
| 2026-05-05 15:18 | 43.81186 | 4.14452 | 24002 ft | 405 kts | 190° |
| 2026-05-05 15:19 | 43.78425 | 4.13802 | 24000 ft | 405 kts | 190° |
| 2026-05-05 15:19 | 43.75640 | 4.13147 | 24000 ft | 405 kts | 190° |
| 2026-05-05 15:19 | 43.72855 | 4.12493 | 23999 ft | 405 kts | 190° |
| 2026-05-05 15:19 | 43.70118 | 4.11862 | 24235 ft | 389 kts | 194° |
| 2026-05-05 15:20 | 43.67556 | 4.11299 | 24061 ft | 364 kts | 194° |
| 2026-05-05 15:20 | 43.65083 | 4.10742 | 23983 ft | 357 kts | 194° |
| 2026-05-05 15:20 | 43.62642 | 4.10174 | 23948 ft | 358 kts | 195° |
| 2026-05-05 15:20 | 43.60167 | 4.09587 | 23927 ft | 359 kts | 195° |
| 2026-05-05 15:21 | 43.57717 | 4.09004 | 23917 ft | 359 kts | 195° |
| 2026-05-05 15:21 | 43.55272 | 4.08423 | 23914 ft | 359 kts | 195° |
| 2026-05-05 15:21 | 43.52786 | 4.07833 | 23917 ft | 359 kts | 195° |
| 2026-05-05 15:21 | 43.50348 | 4.07256 | 23910 ft | 359 kts | 195° |
| 2026-05-05 15:22 | 43.47889 | 4.06677 | 23910 ft | 359 kts | 195° |
| 2026-05-05 15:22 | 43.45402 | 4.06093 | 23912 ft | 359 kts | 195° |
| 2026-05-05 15:22 | 43.42955 | 4.05520 | 23913 ft | 359 kts | 195° |
| 2026-05-05 15:22 | 43.40473 | 4.04939 | 23910 ft | 359 kts | 195° |
| 2026-05-05 15:23 | 43.38035 | 4.04371 | 23912 ft | 359 kts | 195° |
| 2026-05-05 15:23 | 43.35562 | 4.03794 | 23909 ft | 359 kts | 195° |
| 2026-05-05 15:23 | 43.33111 | 4.03223 | 23908 ft | 359 kts | 195° |
| 2026-05-05 15:23 | 43.30622 | 4.02645 | 23907 ft | 359 kts | 194° |
| 2026-05-05 15:24 | 43.28181 | 4.02080 | 23905 ft | 359 kts | 194° |
| 2026-05-05 15:24 | 43.25723 | 4.01510 | 23907 ft | 359 kts | 195° |
| 2026-05-05 15:24 | 43.23241 | 4.00936 | 23907 ft | 359 kts | 194° |
| 2026-05-05 15:24 | 43.20762 | 4.00363 | 23905 ft | 359 kts | 194° |
| 2026-05-05 15:25 | 43.18324 | 3.99800 | 23906 ft | 359 kts | 194° |
| 2026-05-05 15:25 | 43.15848 | 3.99229 | 23904 ft | 359 kts | 194° |
| 2026-05-05 15:25 | 43.13393 | 3.98664 | 23907 ft | 359 kts | 194° |
| 2026-05-05 15:25 | 43.10914 | 3.98093 | 23902 ft | 360 kts | 194° |
| 2026-05-05 15:26 | 43.08457 | 3.97529 | 23904 ft | 360 kts | 194° |
| 2026-05-05 15:26 | 43.06002 | 3.96965 | 23905 ft | 359 kts | 194° |
| 2026-05-05 15:26 | 43.03515 | 3.96394 | 23902 ft | 360 kts | 194° |
| 2026-05-05 15:26 | 43.01055 | 3.95829 | 23906 ft | 360 kts | 194° |
| 2026-05-05 15:27 | 42.98601 | 3.95266 | 23906 ft | 360 kts | 194° |
| 2026-05-05 15:27 | 42.96110 | 3.94696 | 23905 ft | 360 kts | 194° |
| 2026-05-05 15:27 | 42.93656 | 3.94134 | 23902 ft | 360 kts | 194° |
| 2026-05-05 15:27 | 42.91175 | 3.93568 | 23903 ft | 360 kts | 194° |
| 2026-05-05 15:28 | 42.88720 | 3.93007 | 23906 ft | 360 kts | 194° |
| 2026-05-05 15:28 | 42.86241 | 3.92441 | 23902 ft | 360 kts | 194° |
| 2026-05-05 15:28 | 42.83759 | 3.91874 | 23905 ft | 360 kts | 194° |
| 2026-05-05 15:28 | 42.81310 | 3.91317 | 23906 ft | 360 kts | 194° |
| 2026-05-05 15:29 | 42.79649 | 3.90939 | 23907 ft | 360 kts | 194° |
| 2026-05-05 15:29 | 42.77187 | 3.90378 | 23906 ft | 360 kts | 194° |
| 2026-05-05 15:29 | 42.73889 | 3.89628 | 23905 ft | 361 kts | 194° |
| 2026-05-05 15:29 | 42.72238 | 3.89253 | 23905 ft | 360 kts | 194° |
| 2026-05-05 15:30 | 42.68946 | 3.88506 | 23900 ft | 360 kts | 194° |
| 2026-05-05 15:30 | 42.66475 | 3.87945 | 23902 ft | 361 kts | 194° |
| 2026-05-05 15:30 | 42.64824 | 3.87571 | 23904 ft | 361 kts | 194° |
| 2026-05-05 15:30 | 42.62333 | 3.87008 | 23903 ft | 361 kts | 194° |
| 2026-05-05 15:31 | 42.59875 | 3.86453 | 23901 ft | 361 kts | 194° |
| 2026-05-05 15:31 | 42.57374 | 3.85887 | 23902 ft | 361 kts | 194° |
| 2026-05-05 15:31 | 42.54915 | 3.85332 | 23902 ft | 361 kts | 194° |
| 2026-05-05 15:31 | 42.52452 | 3.84776 | 23904 ft | 361 kts | 194° |
| 2026-05-05 15:32 | 42.49969 | 3.84217 | 23899 ft | 361 kts | 194° |
| 2026-05-05 15:32 | 42.47507 | 3.83663 | 23898 ft | 361 kts | 194° |
| 2026-05-05 15:32 | 42.45022 | 3.83104 | 23899 ft | 361 kts | 194° |
| 2026-05-05 15:32 | 42.42556 | 3.82550 | 23898 ft | 361 kts | 194° |
| 2026-05-05 15:33 | 42.40057 | 3.81989 | 23897 ft | 361 kts | 194° |
| 2026-05-05 15:33 | 42.37598 | 3.81437 | 23900 ft | 361 kts | 195° |
| 2026-05-05 15:33 | 42.35111 | 3.80880 | 23895 ft | 360 kts | 195° |
| 2026-05-05 15:33 | 42.32649 | 3.80328 | 23897 ft | 361 kts | 195° |
| 2026-05-05 15:34 | 42.30154 | 3.79769 | 23898 ft | 362 kts | 195° |
| 2026-05-05 15:34 | 42.27662 | 3.79212 | 23900 ft | 362 kts | 195° |
| 2026-05-05 15:34 | 42.25206 | 3.78664 | 23898 ft | 361 kts | 195° |
| 2026-05-05 15:34 | 42.22719 | 3.78108 | 23900 ft | 361 kts | 195° |
| 2026-05-05 15:35 | 42.20232 | 3.77553 | 23897 ft | 361 kts | 195° |
| 2026-05-05 15:35 | 42.17771 | 3.77003 | 23900 ft | 361 kts | 195° |
| 2026-05-05 15:35 | 42.15273 | 3.76446 | 23895 ft | 361 kts | 195° |
| 2026-05-05 15:35 | 42.12806 | 3.75896 | 23896 ft | 361 kts | 195° |
| 2026-05-05 15:36 | 42.10340 | 3.75348 | 23893 ft | 361 kts | 195° |
| 2026-05-05 15:36 | 42.07837 | 3.74790 | 23897 ft | 361 kts | 195° |
| 2026-05-05 15:36 | 42.05379 | 3.74244 | 23898 ft | 361 kts | 195° |
| 2026-05-05 15:36 | 42.02889 | 3.73692 | 23895 ft | 360 kts | 195° |
| 2026-05-05 15:37 | 42.00427 | 3.73146 | 23895 ft | 361 kts | 195° |
| 2026-05-05 15:37 | 41.97959 | 3.72598 | 23898 ft | 361 kts | 195° |
| 2026-05-05 15:37 | 41.95480 | 3.72048 | 23894 ft | 360 kts | 195° |
| 2026-05-05 15:37 | 41.92984 | 3.71496 | 23895 ft | 360 kts | 195° |
| 2026-05-05 15:38 | 41.90529 | 3.70953 | 23889 ft | 360 kts | 195° |
| 2026-05-05 15:38 | 41.88075 | 3.70411 | 23889 ft | 360 kts | 195° |
| 2026-05-05 15:38 | 41.85592 | 3.69862 | 23891 ft | 360 kts | 195° |
| 2026-05-05 15:38 | 41.83131 | 3.69318 | 23887 ft | 360 kts | 195° |
| 2026-05-05 15:39 | 41.80642 | 3.68770 | 23886 ft | 359 kts | 195° |
| 2026-05-05 15:39 | 41.78197 | 3.68231 | 23886 ft | 359 kts | 195° |
| 2026-05-05 15:39 | 41.75736 | 3.67688 | 23895 ft | 360 kts | 195° |
| 2026-05-05 15:39 | 41.73250 | 3.67141 | 23887 ft | 360 kts | 195° |
| 2026-05-05 15:40 | 41.70792 | 3.66600 | 23898 ft | 359 kts | 195° |
| 2026-05-05 15:40 | 41.68308 | 3.66055 | 23897 ft | 359 kts | 195° |
| 2026-05-05 15:40 | 41.65860 | 3.65517 | 23889 ft | 359 kts | 195° |
| 2026-05-05 15:40 | 41.63385 | 3.64973 | 23886 ft | 359 kts | 195° |
| 2026-05-05 15:41 | 41.60922 | 3.64432 | 23887 ft | 359 kts | 195° |
| 2026-05-05 15:41 | 41.58464 | 3.63893 | 23886 ft | 359 kts | 195° |
| 2026-05-05 15:41 | 41.55981 | 3.63351 | 23892 ft | 359 kts | 195° |
| 2026-05-05 15:41 | 41.53528 | 3.62814 | 23891 ft | 359 kts | 195° |
| 2026-05-05 15:42 | 41.51074 | 3.62277 | 23892 ft | 359 kts | 195° |
| 2026-05-05 15:42 | 41.48595 | 3.61735 | 23884 ft | 359 kts | 195° |
| 2026-05-05 15:42 | 41.46150 | 3.61201 | 23887 ft | 359 kts | 195° |
| 2026-05-05 15:42 | 41.43664 | 3.60659 | 23891 ft | 359 kts | 195° |
| 2026-05-05 15:43 | 41.41210 | 3.60125 | 23883 ft | 359 kts | 195° |
| 2026-05-05 15:43 | 41.38737 | 3.59587 | 23883 ft | 359 kts | 195° |
| 2026-05-05 15:43 | 41.36288 | 3.59055 | 23888 ft | 359 kts | 195° |
| 2026-05-05 15:43 | 41.33801 | 3.58514 | 23886 ft | 359 kts | 196° |
| 2026-05-05 15:44 | 41.31352 | 3.57982 | 23888 ft | 359 kts | 195° |
| 2026-05-05 15:44 | 41.28865 | 3.57442 | 23893 ft | 359 kts | 195° |
| 2026-05-05 15:44 | 41.26412 | 3.56910 | 23891 ft | 360 kts | 196° |
| 2026-05-05 15:44 | 41.23957 | 3.56377 | 23890 ft | 360 kts | 195° |
| 2026-05-05 15:45 | 41.21486 | 3.55841 | 23889 ft | 359 kts | 195° |
| 2026-05-05 15:45 | 41.18997 | 3.55302 | 23890 ft | 359 kts | 195° |
| 2026-05-05 15:45 | 41.16544 | 3.54772 | 23889 ft | 360 kts | 195° |
| 2026-05-05 15:45 | 41.14062 | 3.54235 | 23892 ft | 360 kts | 195° |
| 2026-05-05 15:46 | 41.11606 | 3.53705 | 23888 ft | 360 kts | 195° |
| 2026-05-05 15:46 | 41.09141 | 3.53174 | 23888 ft | 360 kts | 195° |
| 2026-05-05 15:46 | 41.06646 | 3.52636 | 23886 ft | 359 kts | 196° |
| 2026-05-05 15:46 | 41.04194 | 3.52107 | 23886 ft | 360 kts | 195° |
| 2026-05-05 15:47 | 41.01704 | 3.51570 | 23886 ft | 360 kts | 196° |
| 2026-05-05 15:47 | 41.00079 | 3.51220 | 23886 ft | 360 kts | 195° |
| 2026-05-05 15:47 | 40.96789 | 3.50513 | 23889 ft | 360 kts | 195° |
| 2026-05-05 15:47 | 40.94306 | 3.49981 | 23890 ft | 360 kts | 195° |
| 2026-05-05 15:48 | 40.91842 | 3.49451 | 23889 ft | 361 kts | 196° |
| 2026-05-05 15:48 | 40.89340 | 3.48914 | 23889 ft | 361 kts | 196° |
| 2026-05-05 15:48 | 40.86888 | 3.48389 | 23888 ft | 361 kts | 196° |
| 2026-05-05 15:48 | 40.84390 | 3.47854 | 23889 ft | 360 kts | 196° |
| 2026-05-05 15:49 | 40.81940 | 3.47331 | 23889 ft | 361 kts | 196° |
| 2026-05-05 15:49 | 40.79449 | 3.46798 | 23887 ft | 361 kts | 196° |
| 2026-05-05 15:49 | 40.76965 | 3.46267 | 23888 ft | 361 kts | 196° |
| 2026-05-05 15:49 | 40.74505 | 3.45742 | 23888 ft | 361 kts | 196° |
| 2026-05-05 15:50 | 40.72086 | 3.45237 | 23882 ft | 335 kts | 196° |
| 2026-05-05 15:50 | 40.69883 | 3.44790 | 23888 ft | 311 kts | 196° |
| 2026-05-05 15:50 | 40.67789 | 3.44363 | 23885 ft | 299 kts | 197° |
| 2026-05-05 15:50 | 40.65745 | 3.43929 | 23890 ft | 301 kts | 197° |
| 2026-05-05 15:51 | 40.63665 | 3.43475 | 23887 ft | 302 kts | 197° |
| 2026-05-05 15:51 | 40.61580 | 3.43019 | 23892 ft | 301 kts | 197° |
| 2026-05-05 15:51 | 40.59530 | 3.42572 | 23894 ft | 301 kts | 197° |
| 2026-05-05 15:51 | 40.57473 | 3.42125 | 23892 ft | 302 kts | 197° |
| 2026-05-05 15:52 | 40.55387 | 3.41675 | 23888 ft | 302 kts | 197° |
| 2026-05-05 15:52 | 40.53327 | 3.41234 | 23891 ft | 302 kts | 197° |
| 2026-05-05 15:52 | 40.51244 | 3.40790 | 23892 ft | 302 kts | 197° |
| 2026-05-05 15:52 | 40.49164 | 3.40348 | 23896 ft | 303 kts | 197° |
| 2026-05-05 15:53 | 40.47064 | 3.39954 | 23893 ft | 305 kts | 194° |
| 2026-05-05 15:53 | 40.44941 | 3.39760 | 23777 ft | 308 kts | 191° |
| 2026-05-05 15:53 | 40.42814 | 3.39682 | 23317 ft | 307 kts | 189° |
| 2026-05-05 15:53 | 40.40646 | 3.39670 | 22601 ft | 307 kts | 188° |
| 2026-05-05 15:54 | 40.38524 | 3.39701 | 21948 ft | 306 kts | 187° |
| 2026-05-05 15:54 | 40.36419 | 3.39763 | 21322 ft | 305 kts | 187° |
| 2026-05-05 15:54 | 40.34293 | 3.39845 | 20696 ft | 303 kts | 186° |
| 2026-05-05 15:54 | 40.32179 | 3.39940 | 20087 ft | 302 kts | 186° |
| 2026-05-05 15:55 | 40.30108 | 3.40041 | 19501 ft | 300 kts | 185° |
| 2026-05-05 15:55 | 40.28004 | 3.40150 | 18913 ft | 299 kts | 185° |
| 2026-05-05 15:55 | 40.25945 | 3.40272 | 18362 ft | 298 kts | 185° |
| 2026-05-05 15:55 | 40.23877 | 3.40394 | 17758 ft | 296 kts | 184° |
| 2026-05-05 15:56 | 40.21840 | 3.40510 | 17170 ft | 293 kts | 184° |
| 2026-05-05 15:56 | 40.19807 | 3.40623 | 16577 ft | 290 kts | 184° |
| 2026-05-05 15:56 | 40.17816 | 3.40732 | 16025 ft | 288 kts | 184° |
| 2026-05-05 15:56 | 40.15821 | 3.40841 | 15471 ft | 286 kts | 184° |
| 2026-05-05 15:57 | 40.13847 | 3.40949 | 14926 ft | 284 kts | 183° |
| 2026-05-05 15:57 | 40.11868 | 3.41059 | 14395 ft | 281 kts | 183° |
| 2026-05-05 15:57 | 40.09920 | 3.41168 | 13870 ft | 279 kts | 182° |
| 2026-05-05 15:57 | 40.07977 | 3.41279 | 13301 ft | 278 kts | 182° |
| 2026-05-05 15:58 | 40.06072 | 3.41418 | 12728 ft | 278 kts | 176° |